Airport View

Enter AWOS ICAO identifier for current METAR.

ex. KFNL

KTAN 101452Z AUTO VRB04KT 10SM CLR 32/20 A3001 RMK AO2 SLP162 T03170200 58006

10 Aug 2020 15:12

Frequency: 132.675

Phone: 508-824-5005

Other Area AWOS: KEWB - KPYM - KOWD - KGHG

TAF AMD KPVD 101456Z 1015/1112 23008KT P6SM SCT060 FM101800 19008G15KT P6SM BKN060 FM110000 21006KT P6SM FEW060